sensor_id;sensor_type;location;lat;lon;timestamp;pressure;altitude;pressure_sealevel;temperature;humidity
7478;BME280;3780;42.424;25.636;2022-09-28T00:01:59;98020.13;;;16.25;nan
7478;BME280;3780;42.424;25.636;2022-09-28T00:04:25;97966.22;;;15.93;nan
7478;BME280;3780;42.424;25.636;2022-09-28T00:06:50;97957.09;;;15.89;nan
7478;BME280;3780;42.424;25.636;2022-09-28T00:09:16;97931.84;;;15.79;nan
7478;BME280;3780;42.424;25.636;2022-09-28T00:11:42;97916.34;;;15.71;nan
7478;BME280;3780;42.424;25.636;2022-09-28T00:14:08;97989.41;;;16.16;nan
7478;BME280;3780;42.424;25.636;2022-09-28T00:16:38;98018.66;;;16.36;nan
7478;BME280;3780;42.424;25.636;2022-09-28T00:19:04;98001.22;;;16.20;nan
7478;BME280;3780;42.424;25.636;2022-09-28T00:21:33;97954.25;;;15.85;nan
7478;BME280;3780;42.424;25.636;2022-09-28T00:24:00;98019.78;;;16.18;nan
7478;BME280;3780;42.424;25.636;2022-09-28T00:26:48;98013.09;;;16.24;nan
7478;BME280;3780;42.424;25.636;2022-09-28T00:29:29;98017.75;;;16.06;nan
7478;BME280;3780;42.424;25.636;2022-09-28T00:32:01;97997.56;;;15.90;nan
7478;BME280;3780;42.424;25.636;2022-09-28T00:34:32;98025.41;;;15.87;nan
7478;BME280;3780;42.424;25.636;2022-09-28T00:36:59;98014.88;;;15.77;nan
7478;BME280;3780;42.424;25.636;2022-09-28T00:39:26;98015.19;;;15.75;nan
7478;BME280;3780;42.424;25.636;2022-09-28T00:41:53;97950.22;;;15.48;nan
7478;BME280;3780;42.424;25.636;2022-09-28T00:46:57;97943.84;;;15.44;nan
7478;BME280;3780;42.424;25.636;2022-09-28T00:52:07;98006.72;;;15.86;nan
7478;BME280;3780;42.424;25.636;2022-09-28T00:54:35;97979.19;;;15.61;nan
7478;BME280;3780;42.424;25.636;2022-09-28T00:57:01;97978.56;;;15.64;nan
7478;BME280;3780;42.424;25.636;2022-09-28T00:59:29;97982.38;;;15.72;nan
7478;BME280;3780;42.424;25.636;2022-09-28T01:01:55;97967.19;;;15.62;nan
7478;BME280;3780;42.424;25.636;2022-09-28T01:04:21;97942.53;;;15.41;nan
7478;BME280;3780;42.424;25.636;2022-09-28T01:06:48;97940.63;;;15.50;nan
7478;BME280;3780;42.424;25.636;2022-09-28T01:09:16;97930.72;;;15.46;nan
7478;BME280;3780;42.424;25.636;2022-09-28T01:11:42;97998.69;;;15.89;nan
7478;BME280;3780;42.424;25.636;2022-09-28T01:14:10;97925.28;;;15.46;nan
7478;BME280;3780;42.424;25.636;2022-09-28T01:21:54;97975.34;;;15.88;nan
7478;BME280;3780;42.424;25.636;2022-09-28T01:24:39;97977.88;;;15.93;nan
7478;BME280;3780;42.424;25.636;2022-09-28T01:29:53;97947.03;;;15.80;nan
7478;BME280;3780;42.424;25.636;2022-09-28T01:35:30;97906.75;;;15.57;nan
7478;BME280;3780;42.424;25.636;2022-09-28T01:38:04;97933.63;;;15.67;nan
7478;BME280;3780;42.424;25.636;2022-09-28T01:40:32;97942.44;;;15.64;nan
7478;BME280;3780;42.424;25.636;2022-09-28T01:43:14;97940.94;;;15.58;nan
7478;BME280;3780;42.424;25.636;2022-09-28T01:45:44;97969.44;;;15.69;nan
7478;BME280;3780;42.424;25.636;2022-09-28T01:48:14;97935.03;;;15.38;nan
7478;BME280;3780;42.424;25.636;2022-09-28T01:50:43;97854.94;;;14.84;nan
7478;BME280;3780;42.424;25.636;2022-09-28T01:55:48;97984.47;;;15.66;nan
7478;BME280;3780;42.424;25.636;2022-09-28T01:58:20;97946.56;;;15.44;nan
7478;BME280;3780;42.424;25.636;2022-09-28T02:00:54;97914.41;;;15.29;nan
7478;BME280;3780;42.424;25.636;2022-09-28T02:03:28;97879.72;;;15.00;nan
7478;BME280;3780;42.424;25.636;2022-09-28T02:06:03;97987.81;;;15.72;nan
7478;BME280;3780;42.424;25.636;2022-09-28T02:08:33;98009.91;;;15.79;nan
7478;BME280;3780;42.424;25.636;2022-09-28T02:13:38;97961.72;;;15.36;nan
7478;BME280;3780;42.424;25.636;2022-09-28T02:16:31;98019.84;;;15.75;nan
7478;BME280;3780;42.424;25.636;2022-09-28T02:18:59;97976.94;;;15.46;nan
7478;BME280;3780;42.424;25.636;2022-09-28T02:21:40;97960.44;;;15.42;nan
7478;BME280;3780;42.424;25.636;2022-09-28T02:24:27;98014.88;;;15.77;nan
7478;BME280;3780;42.424;25.636;2022-09-28T02:26:59;98022.69;;;15.70;nan
7478;BME280;3780;42.424;25.636;2022-09-28T02:29:28;97966.34;;;15.27;nan
7478;BME280;3780;42.424;25.636;2022-09-28T02:31:53;97971.47;;;15.29;nan
7478;BME280;3780;42.424;25.636;2022-09-28T02:34:19;97919.50;;;14.95;nan
7478;BME280;3780;42.424;25.636;2022-09-28T02:36:45;98001.06;;;15.47;nan
7478;BME280;3780;42.424;25.636;2022-09-28T02:39:14;98003.28;;;15.37;nan
7478;BME280;3780;42.424;25.636;2022-09-28T02:42:04;98020.22;;;15.42;nan
7478;BME280;3780;42.424;25.636;2022-09-28T02:47:15;98020.53;;;15.41;nan
7478;BME280;3780;42.424;25.636;2022-09-28T02:49:45;98023.59;;;15.39;nan
7478;BME280;3780;42.424;25.636;2022-09-28T02:52:32;97968.19;;;14.92;nan
7478;BME280;3780;42.424;25.636;2022-09-28T03:00:22;97949.97;;;14.84;nan
7478;BME280;3780;42.424;25.636;2022-09-28T03:03:17;98020.53;;;15.32;nan
7478;BME280;3780;42.424;25.636;2022-09-28T03:06:01;98017.50;;;15.34;nan
7478;BME280;3780;42.424;25.636;2022-09-28T03:08:37;97990.44;;;15.11;nan
7478;BME280;3780;42.424;25.636;2022-09-28T03:11:29;98017.94;;;15.18;nan
7478;BME280;3780;42.424;25.636;2022-09-28T03:13:53;97961.13;;;14.82;nan
7478;BME280;3780;42.424;25.636;2022-09-28T03:16:19;98014.88;;;15.11;nan
7478;BME280;3780;42.424;25.636;2022-09-28T03:18:46;98027.06;;;15.22;nan
7478;BME280;3780;42.424;25.636;2022-09-28T03:21:13;97901.25;;;14.39;nan
7478;BME280;3780;42.424;25.636;2022-09-28T03:23:39;97979.16;;;14.78;nan
7478;BME280;3780;42.424;25.636;2022-09-28T03:26:15;98034.06;;;15.06;nan
7478;BME280;3780;42.424;25.636;2022-09-28T03:28:41;97972.91;;;14.69;nan
7478;BME280;3780;42.424;25.636;2022-09-28T03:33:32;97959.28;;;14.60;nan
7478;BME280;3780;42.424;25.636;2022-09-28T03:35:58;98012.41;;;14.92;nan
7478;BME280;3780;42.424;25.636;2022-09-28T03:38:24;98007.47;;;14.86;nan
7478;BME280;3780;42.424;25.636;2022-09-28T03:40:56;98029.69;;;14.97;nan
7478;BME280;3780;42.424;25.636;2022-09-28T03:43:23;98027.63;;;15.02;nan
7478;BME280;3780;42.424;25.636;2022-09-28T03:45:59;98024.31;;;15.05;nan
7478;BME280;3780;42.424;25.636;2022-09-28T03:48:27;98012.44;;;15.01;nan
7478;BME280;3780;42.424;25.636;2022-09-28T03:50:57;98019.81;;;15.01;nan
7478;BME280;3780;42.424;25.636;2022-09-28T03:53:24;98025.34;;;14.87;nan
7478;BME280;3780;42.424;25.636;2022-09-28T03:55:50;98026.25;;;14.74;nan
7478;BME280;3780;42.424;25.636;2022-09-28T03:58:18;97977.03;;;14.35;nan
7478;BME280;3780;42.424;25.636;2022-09-28T04:00:45;98004.47;;;14.56;nan
7478;BME280;3780;42.424;25.636;2022-09-28T04:03:10;98012.69;;;14.74;nan
7478;BME280;3780;42.424;25.636;2022-09-28T04:05:36;98053.03;;;14.98;nan
7478;BME280;3780;42.424;25.636;2022-09-28T04:08:01;98040.88;;;14.95;nan
7478;BME280;3780;42.424;25.636;2022-09-28T04:10:27;98047.16;;;15.13;nan
7478;BME280;3780;42.424;25.636;2022-09-28T04:12:56;97984.56;;;14.70;nan
7478;BME280;3780;42.424;25.636;2022-09-28T04:15:23;98029.38;;;14.98;nan
7478;BME280;3780;42.424;25.636;2022-09-28T04:17:49;98054.22;;;15.14;nan
7478;BME280;3780;42.424;25.636;2022-09-28T04:20:14;98057.41;;;15.16;nan
7478;BME280;3780;42.424;25.636;2022-09-28T04:22:41;98060.44;;;15.14;nan
7478;BME280;3780;42.424;25.636;2022-09-28T04:25:07;98055.81;;;15.15;nan
7478;BME280;3780;42.424;25.636;2022-09-28T04:27:33;98002.91;;;14.73;nan
7478;BME280;3780;42.424;25.636;2022-09-28T04:30:17;98072.44;;;15.13;nan
7478;BME280;3780;42.424;25.636;2022-09-28T04:32:45;98050.53;;;14.79;nan
7478;BME280;3780;42.424;25.636;2022-09-28T04:35:11;98062.28;;;14.97;nan
7478;BME280;3780;42.424;25.636;2022-09-28T04:37:36;98072.72;;;15.12;nan
7478;BME280;3780;42.424;25.636;2022-09-28T04:40:02;98075.78;;;15.19;nan
7478;BME280;3780;42.424;25.636;2022-09-28T04:42:28;98042.13;;;14.89;nan
7478;BME280;3780;42.424;25.636;2022-09-28T04:44:53;98072.28;;;15.18;nan
7478;BME280;3780;42.424;25.636;2022-09-28T04:47:21;98087.16;;;15.30;nan
7478;BME280;3780;42.424;25.636;2022-09-28T04:49:46;98066.03;;;15.18;nan
7478;BME280;3780;42.424;25.636;2022-09-28T04:52:12;98065.09;;;15.22;nan
7478;BME280;3780;42.424;25.636;2022-09-28T04:54:37;98084.34;;;15.43;nan
7478;BME280;3780;42.424;25.636;2022-09-28T04:57:03;98093.63;;;15.51;nan
7478;BME280;3780;42.424;25.636;2022-09-28T04:59:30;98062.94;;;15.50;nan
7478;BME280;3780;42.424;25.636;2022-09-28T05:01:56;98044.69;;;15.42;nan
7478;BME280;3780;42.424;25.636;2022-09-28T05:04:21;98077.38;;;15.68;nan
7478;BME280;3780;42.424;25.636;2022-09-28T05:06:47;98094.66;;;15.72;nan
7478;BME280;3780;42.424;25.636;2022-09-28T05:09:13;98099.50;;;15.84;nan
7478;BME280;3780;42.424;25.636;2022-09-28T05:11:39;98020.72;;;15.53;nan
7478;BME280;3780;42.424;25.636;2022-09-28T05:14:05;98079.03;;;15.95;nan
7478;BME280;3780;42.424;25.636;2022-09-28T05:16:30;98062.53;;;15.92;nan
7478;BME280;3780;42.424;25.636;2022-09-28T05:18:58;97938.81;;;15.11;nan
7478;BME280;3780;42.424;25.636;2022-09-28T05:21:24;98104.28;;;16.30;nan
7478;BME280;3780;42.424;25.636;2022-09-28T05:23:51;98003.53;;;15.84;nan
7478;BME280;3780;42.424;25.636;2022-09-28T05:26:20;98079.31;;;16.37;nan
7478;BME280;3780;42.424;25.636;2022-09-28T05:28:46;98065.38;;;16.47;nan
7478;BME280;3780;42.424;25.636;2022-09-28T05:31:11;98063.91;;;16.67;nan
7478;BME280;3780;42.424;25.636;2022-09-28T05:33:36;98026.63;;;16.50;nan
7478;BME280;3780;42.424;25.636;2022-09-28T05:36:02;98039.41;;;16.76;nan
7478;BME280;3780;42.424;25.636;2022-09-28T05:38:29;98099.13;;;17.28;nan
7478;BME280;3780;42.424;25.636;2022-09-28T05:40:54;98074.94;;;17.26;nan
7478;BME280;3780;42.424;25.636;2022-09-28T05:43:20;98108.91;;;17.58;nan
7478;BME280;3780;42.424;25.636;2022-09-28T05:45:46;97914.88;;;16.47;nan
7478;BME280;3780;42.424;25.636;2022-09-28T05:48:12;98075.53;;;17.61;nan
7478;BME280;3780;42.424;25.636;2022-09-28T05:50:37;98087.97;;;17.79;nan
7478;BME280;3780;42.424;25.636;2022-09-28T05:53:05;98123.66;;;18.16;nan
7478;BME280;3780;42.424;25.636;2022-09-28T05:55:32;98044.44;;;17.83;nan
7478;BME280;3780;42.424;25.636;2022-09-28T05:57:58;98064.13;;;18.09;nan
7478;BME280;3780;42.424;25.636;2022-09-28T06:00:26;98044.16;;;18.18;nan
7478;BME280;3780;42.424;25.636;2022-09-28T06:03:05;98097.44;;;18.57;nan
7478;BME280;3780;42.424;25.636;2022-09-28T06:05:33;98140.63;;;18.97;nan
7478;BME280;3780;42.424;25.636;2022-09-28T06:07:59;98045.19;;;18.46;nan
7478;BME280;3780;42.424;25.636;2022-09-28T06:10:27;98113.84;;;18.90;nan
7478;BME280;3780;42.424;25.636;2022-09-28T06:12:56;98145.34;;;19.20;nan
7478;BME280;3780;42.424;25.636;2022-09-28T06:15:23;98152.31;;;19.30;nan
7478;BME280;3780;42.424;25.636;2022-09-28T06:18:08;98151.97;;;19.32;nan
7478;BME280;3780;42.424;25.636;2022-09-28T06:20:36;98143.44;;;19.45;nan
7478;BME280;3780;42.424;25.636;2022-09-28T06:23:02;98073.00;;;19.18;nan
7478;BME280;3780;42.424;25.636;2022-09-28T06:25:28;98117.94;;;19.66;nan
7478;BME280;3780;42.424;25.636;2022-09-28T06:28:01;98136.59;;;20.00;nan
7478;BME280;3780;42.424;25.636;2022-09-28T06:30:28;98142.63;;;20.18;nan
7478;BME280;3780;42.424;25.636;2022-09-28T06:32:58;98129.81;;;20.22;nan
7478;BME280;3780;42.424;25.636;2022-09-28T06:35:26;98133.34;;;20.23;nan
7478;BME280;3780;42.424;25.636;2022-09-28T06:37:52;98076.72;;;19.99;nan
7478;BME280;3780;42.424;25.636;2022-09-28T06:40:19;98149.69;;;20.59;nan
7478;BME280;3780;42.424;25.636;2022-09-28T06:42:56;98148.06;;;20.71;nan
7478;BME280;3780;42.424;25.636;2022-09-28T06:45:22;98046.19;;;20.25;nan
7478;BME280;3780;42.424;25.636;2022-09-28T06:47:59;98055.09;;;20.50;nan
7478;BME280;3780;42.424;25.636;2022-09-28T06:50:31;98141.88;;;21.17;nan
7478;BME280;3780;42.424;25.636;2022-09-28T06:52:58;98141.22;;;21.36;nan
7478;BME280;3780;42.424;25.636;2022-09-28T06:55:25;98108.25;;;21.20;nan
7478;BME280;3780;42.424;25.636;2022-09-28T06:58:05;98150.94;;;21.65;nan
7478;BME280;3780;42.424;25.636;2022-09-28T07:00:33;98146.41;;;21.73;nan
7478;BME280;3780;42.424;25.636;2022-09-28T07:03:00;98121.09;;;21.64;nan
7478;BME280;3780;42.424;25.636;2022-09-28T07:05:26;98149.06;;;21.85;nan
7478;BME280;3780;42.424;25.636;2022-09-28T07:07:56;98136.88;;;22.02;nan
7478;BME280;3780;42.424;25.636;2022-09-28T07:10:26;98148.22;;;22.16;nan
7478;BME280;3780;42.424;25.636;2022-09-28T07:12:52;98046.09;;;21.75;nan
7478;BME280;3780;42.424;25.636;2022-09-28T07:15:18;98157.84;;;22.64;nan
7478;BME280;3780;42.424;25.636;2022-09-28T07:17:44;98145.25;;;22.83;nan
7478;BME280;3780;42.424;25.636;2022-09-28T07:20:10;98141.09;;;22.89;nan
7478;BME280;3780;42.424;25.636;2022-09-28T07:22:36;98126.91;;;22.67;nan
7478;BME280;3780;42.424;25.636;2022-09-28T07:25:04;98146.28;;;22.94;nan
7478;BME280;3780;42.424;25.636;2022-09-28T07:27:30;98153.97;;;23.27;nan
7478;BME280;3780;42.424;25.636;2022-09-28T07:29:55;98169.63;;;23.46;nan
7478;BME280;3780;42.424;25.636;2022-09-28T07:32:23;98112.69;;;23.04;nan
7478;BME280;3780;42.424;25.636;2022-09-28T07:34:49;98104.38;;;23.23;nan
7478;BME280;3780;42.424;25.636;2022-09-28T07:37:15;98076.16;;;23.27;nan
7478;BME280;3780;42.424;25.636;2022-09-28T07:39:43;98113.38;;;23.66;nan
7478;BME280;3780;42.424;25.636;2022-09-28T07:42:27;98140.22;;;23.99;nan
7478;BME280;3780;42.424;25.636;2022-09-28T07:44:54;98178.47;;;24.31;nan
7478;BME280;3780;42.424;25.636;2022-09-28T07:47:21;98120.56;;;23.74;nan
7478;BME280;3780;42.424;25.636;2022-09-28T07:49:53;98053.19;;;23.42;nan
7478;BME280;3780;42.424;25.636;2022-09-28T07:52:21;98177.03;;;24.41;nan
7478;BME280;3780;42.424;25.636;2022-09-28T07:54:56;98168.53;;;24.53;nan
7478;BME280;3780;42.424;25.636;2022-09-28T07:57:23;98168.69;;;25.01;nan
7478;BME280;3780;42.424;25.636;2022-09-28T07:59:49;98156.72;;;25.19;nan
7478;BME280;3780;42.424;25.636;2022-09-28T08:02:18;98109.16;;;24.96;nan
7478;BME280;3780;42.424;25.636;2022-09-28T08:04:45;98139.47;;;25.30;nan
7478;BME280;3780;42.424;25.636;2022-09-28T08:07:11;98106.94;;;25.09;nan
7478;BME280;3780;42.424;25.636;2022-09-28T08:09:38;98111.69;;;25.12;nan
7478;BME280;3780;42.424;25.636;2022-09-28T08:12:05;98136.09;;;25.50;nan
7478;BME280;3780;42.424;25.636;2022-09-28T08:14:32;98086.22;;;25.29;nan
7478;BME280;3780;42.424;25.636;2022-09-28T08:17:02;98150.31;;;25.52;nan
7478;BME280;3780;42.424;25.636;2022-09-28T08:19:28;98063.72;;;25.27;nan
7478;BME280;3780;42.424;25.636;2022-09-28T08:22:19;98082.75;;;25.36;nan
7478;BME280;3780;42.424;25.636;2022-09-28T08:24:46;98148.84;;;26.24;nan
7478;BME280;3780;42.424;25.636;2022-09-28T08:27:13;98107.78;;;26.23;nan
7478;BME280;3780;42.424;25.636;2022-09-28T08:29:39;52005.13;;;26.79;nan
7478;BME280;3780;42.424;25.636;2022-09-28T08:32:06;98149.59;;;26.98;nan
7478;BME280;3780;42.424;25.636;2022-09-28T08:34:36;98151.25;;;27.24;nan
7478;BME280;3780;42.424;25.636;2022-09-28T08:37:02;98154.81;;;27.35;nan
7478;BME280;3780;42.424;25.636;2022-09-28T08:39:28;98160.75;;;27.30;nan
7478;BME280;3780;42.424;25.636;2022-09-28T08:44:36;98147.09;;;26.64;nan
7478;BME280;3780;42.424;25.636;2022-09-28T08:47:10;98156.41;;;27.29;nan
7478;BME280;3780;42.424;25.636;2022-09-28T08:50:00;98142.19;;;27.62;nan
7478;BME280;3780;42.424;25.636;2022-09-28T08:52:30;98139.81;;;27.82;nan
7478;BME280;3780;42.424;25.636;2022-09-28T08:55:03;98119.22;;;27.97;nan
7478;BME280;3780;42.424;25.636;2022-09-28T09:00:18;98157.19;;;28.36;nan
7478;BME280;3780;42.424;25.636;2022-09-28T09:02:45;98111.09;;;28.63;nan
7478;BME280;3780;42.424;25.636;2022-09-28T09:05:15;98155.38;;;28.85;nan
7478;BME280;3780;42.424;25.636;2022-09-28T09:08:00;98139.59;;;28.75;nan
7478;BME280;3780;42.424;25.636;2022-09-28T09:19:01;98159.09;;;29.37;nan
7478;BME280;3780;42.424;25.636;2022-09-28T09:26:42;98139.88;;;30.43;nan
7478;BME280;3780;42.424;25.636;2022-09-28T09:37:29;98148.16;;;31.65;nan
7478;BME280;3780;42.424;25.636;2022-09-28T09:46:07;98139.06;;;30.80;nan
7478;BME280;3780;42.424;25.636;2022-09-28T09:48:39;98126.84;;;31.01;nan
7478;BME280;3780;42.424;25.636;2022-09-28T09:51:23;98141.25;;;31.50;nan
7478;BME280;3780;42.424;25.636;2022-09-28T09:54:01;98117.28;;;31.80;nan
7478;BME280;3780;42.424;25.636;2022-09-28T09:56:40;98103.44;;;31.96;nan
7478;BME280;3780;42.424;25.636;2022-09-28T09:59:14;98134.94;;;32.16;nan
7478;BME280;3780;42.424;25.636;2022-09-28T10:01:43;98120.19;;;32.16;nan
7478;BME280;3780;42.424;25.636;2022-09-28T10:04:34;98136.50;;;31.97;nan
7478;BME280;3780;42.424;25.636;2022-09-28T10:07:05;98120.41;;;32.25;nan
7478;BME280;3780;42.424;25.636;2022-09-28T10:09:37;98119.59;;;32.68;nan
7478;BME280;3780;42.424;25.636;2022-09-28T10:12:07;98108.69;;;32.37;nan
7478;BME280;3780;42.424;25.636;2022-09-28T10:14:35;98118.53;;;32.42;nan
7478;BME280;3780;42.424;25.636;2022-09-28T10:17:01;98108.56;;;32.80;nan
7478;BME280;3780;42.424;25.636;2022-09-28T10:19:31;98129.63;;;33.86;nan
7478;BME280;3780;42.424;25.636;2022-09-28T10:21:58;98073.91;;;33.30;nan
7478;BME280;3780;42.424;25.636;2022-09-28T10:24:45;98119.44;;;32.95;nan
7478;BME280;3780;42.424;25.636;2022-09-28T10:27:16;98097.31;;;32.04;nan
7478;BME280;3780;42.424;25.636;2022-09-28T10:29:56;98115.31;;;31.30;nan
7478;BME280;3780;42.424;25.636;2022-09-28T10:32:26;98109.63;;;31.60;nan
7478;BME280;3780;42.424;25.636;2022-09-28T10:34:53;98113.25;;;32.04;nan
7478;BME280;3780;42.424;25.636;2022-09-28T10:38:06;98084.31;;;32.18;nan
7478;BME280;3780;42.424;25.636;2022-09-28T10:43:27;98103.03;;;32.77;nan
7478;BME280;3780;42.424;25.636;2022-09-28T10:46:12;98099.28;;;32.67;nan
7478;BME280;3780;42.424;25.636;2022-09-28T10:51:10;98086.63;;;32.99;nan
7478;BME280;3780;42.424;25.636;2022-09-28T10:53:38;98077.78;;;32.24;nan
7478;BME280;3780;42.424;25.636;2022-09-28T10:56:06;98087.44;;;32.00;nan
7478;BME280;3780;42.424;25.636;2022-09-28T10:58:42;98085.22;;;31.91;nan
7478;BME280;3780;42.424;25.636;2022-09-28T11:01:14;98083.50;;;31.27;nan
7478;BME280;3780;42.424;25.636;2022-09-28T11:06:14;98062.69;;;30.81;nan
7478;BME280;3780;42.424;25.636;2022-09-28T11:08:43;98076.22;;;31.33;nan
7478;BME280;3780;42.424;25.636;2022-09-28T11:11:12;98052.91;;;31.70;nan
7478;BME280;3780;42.424;25.636;2022-09-28T11:13:50;98034.44;;;31.80;nan
7478;BME280;3780;42.424;25.636;2022-09-28T11:16:27;98065.69;;;31.91;nan
7478;BME280;3780;42.424;25.636;2022-09-28T11:18:55;98038.16;;;32.13;nan
7478;BME280;3780;42.424;25.636;2022-09-28T11:21:39;98026.41;;;32.22;nan
7478;BME280;3780;42.424;25.636;2022-09-28T11:24:17;98039.59;;;31.58;nan
7478;BME280;3780;42.424;25.636;2022-09-28T11:26:46;98025.09;;;31.67;nan
7478;BME280;3780;42.424;25.636;2022-09-28T11:29:42;98031.13;;;32.45;nan
7478;BME280;3780;42.424;25.636;2022-09-28T11:32:09;97997.00;;;32.73;nan
7478;BME280;3780;42.424;25.636;2022-09-28T11:34:45;98024.91;;;32.93;nan
7478;BME280;3780;42.424;25.636;2022-09-28T11:42:37;98039.72;;;33.71;nan
7478;BME280;3780;42.424;25.636;2022-09-28T11:47:49;98024.19;;;33.99;nan
7478;BME280;3780;42.424;25.636;2022-09-28T11:53:09;98019.16;;;34.07;nan
7478;BME280;3780;42.424;25.636;2022-09-28T11:55:55;97981.69;;;32.98;nan
7478;BME280;3780;42.424;25.636;2022-09-28T12:01:37;97958.94;;;32.63;nan
7478;BME280;3780;42.424;25.636;2022-09-28T12:07:17;98015.72;;;32.93;nan
7478;BME280;3780;42.424;25.636;2022-09-28T12:10:05;98028.41;;;33.46;nan
7478;BME280;3780;42.424;25.636;2022-09-28T12:13:19;98021.56;;;33.47;nan
7478;BME280;3780;42.424;25.636;2022-09-28T12:15:42;97984.88;;;32.80;nan
7478;BME280;3780;42.424;25.636;2022-09-28T12:21:32;98026.41;;;33.92;nan
7478;BME280;3780;42.424;25.636;2022-09-28T12:24:32;98036.59;;;33.21;nan
7478;BME280;3780;42.424;25.636;2022-09-28T12:29:45;98018.69;;;32.85;nan
7478;BME280;3780;42.424;25.636;2022-09-28T12:32:35;98017.38;;;32.90;nan
7478;BME280;3780;42.424;25.636;2022-09-28T12:40:50;98000.44;;;33.13;nan
7478;BME280;3780;42.424;25.636;2022-09-28T12:51:55;98020.91;;;34.30;nan
7478;BME280;3780;42.424;25.636;2022-09-28T12:57:34;97997.31;;;33.89;nan
7478;BME280;3780;42.424;25.636;2022-09-28T13:08:09;98024.28;;;33.51;nan
7478;BME280;3780;42.424;25.636;2022-09-28T13:13:44;98002.81;;;34.06;nan
7478;BME280;3780;42.424;25.636;2022-09-28T13:16:27;98011.53;;;33.95;nan
7478;BME280;3780;42.424;25.636;2022-09-28T13:19:19;98010.13;;;34.16;nan
7478;BME280;3780;42.424;25.636;2022-09-28T13:21:59;98004.53;;;33.87;nan
7478;BME280;3780;42.424;25.636;2022-09-28T13:24:34;98002.34;;;33.94;nan
7478;BME280;3780;42.424;25.636;2022-09-28T13:27:09;98005.53;;;33.80;nan
7478;BME280;3780;42.424;25.636;2022-09-28T13:29:38;98006.19;;;33.84;nan
7478;BME280;3780;42.424;25.636;2022-09-28T13:32:07;97983.28;;;33.60;nan
7478;BME280;3780;42.424;25.636;2022-09-28T13:34:35;98014.50;;;33.59;nan
7478;BME280;3780;42.424;25.636;2022-09-28T13:58:36;98001.91;;;33.34;nan
7478;BME280;3780;42.424;25.636;2022-09-28T14:01:11;98004.19;;;33.23;nan
7478;BME280;3780;42.424;25.636;2022-09-28T14:06:31;98012.47;;;33.27;nan
7478;BME280;3780;42.424;25.636;2022-09-28T14:14:44;98006.50;;;33.90;nan
7478;BME280;3780;42.424;25.636;2022-09-28T14:19:51;97967.59;;;33.50;nan
7478;BME280;3780;42.424;25.636;2022-09-28T14:30:22;97984.50;;;32.62;nan
7478;BME280;3780;42.424;25.636;2022-09-28T14:32:57;98011.50;;;32.32;nan
7478;BME280;3780;42.424;25.636;2022-09-28T14:37:56;97976.03;;;30.76;nan
7478;BME280;3780;42.424;25.636;2022-09-28T14:40:58;98017.59;;;30.90;nan
7478;BME280;3780;42.424;25.636;2022-09-28T14:59:29;97972.63;;;29.32;nan
7478;BME280;3780;42.424;25.636;2022-09-28T15:04:35;97988.47;;;28.90;nan
7478;BME280;3780;42.424;25.636;2022-09-28T15:07:03;98007.13;;;28.82;nan
7478;BME280;3780;42.424;25.636;2022-09-28T15:09:34;97966.53;;;28.44;nan
7478;BME280;3780;42.424;25.636;2022-09-28T15:14:57;98017.38;;;28.12;nan
7478;BME280;3780;42.424;25.636;2022-09-28T15:17:46;98028.53;;;27.94;nan
7478;BME280;3780;42.424;25.636;2022-09-28T15:22:45;98010.00;;;27.59;nan
7478;BME280;3780;42.424;25.636;2022-09-28T15:25:15;97945.22;;;27.03;nan
7478;BME280;3780;42.424;25.636;2022-09-28T15:27:44;98021.50;;;27.43;nan
7478;BME280;3780;42.424;25.636;2022-09-28T15:30:25;98015.97;;;27.26;nan
7478;BME280;3780;42.424;25.636;2022-09-28T15:32:52;98009.69;;;27.18;nan
7478;BME280;3780;42.424;25.636;2022-09-28T15:35:23;97995.00;;;26.92;nan
7478;BME280;3780;42.424;25.636;2022-09-28T15:37:51;98023.09;;;27.05;nan
7478;BME280;3780;42.424;25.636;2022-09-28T15:40:32;97960.19;;;26.49;nan
7478;BME280;3780;42.424;25.636;2022-09-28T15:42:59;97959.72;;;26.32;nan
7478;BME280;3780;42.424;25.636;2022-09-28T15:45:27;97979.09;;;26.36;nan
7478;BME280;3780;42.424;25.636;2022-09-28T15:51:46;98030.81;;;26.32;nan
7478;BME280;3780;42.424;25.636;2022-09-28T15:54:22;98023.25;;;26.11;nan
7478;BME280;3780;42.424;25.636;2022-09-28T15:56:56;98040.13;;;25.95;nan
7478;BME280;3780;42.424;25.636;2022-09-28T16:02:18;98044.25;;;25.61;nan
7478;BME280;3780;42.424;25.636;2022-09-28T16:04:53;98053.19;;;25.40;nan
7478;BME280;3780;42.424;25.636;2022-09-28T16:07:27;98044.25;;;25.09;nan
7478;BME280;3780;42.424;25.636;2022-09-28T16:15:26;98048.13;;;24.30;nan
7478;BME280;3780;42.424;25.636;2022-09-28T16:17:56;98045.81;;;24.02;nan
7478;BME280;3780;42.424;25.636;2022-09-28T16:20:31;97982.69;;;23.34;nan
7478;BME280;3780;42.424;25.636;2022-09-28T16:23:00;98031.16;;;23.42;nan
7478;BME280;3780;42.424;25.636;2022-09-28T16:25:33;98045.25;;;23.37;nan
7478;BME280;3780;42.424;25.636;2022-09-28T16:28:01;98030.00;;;23.16;nan
7478;BME280;3780;42.424;25.636;2022-09-28T16:30:32;98045.44;;;23.02;nan
7478;BME280;3780;42.424;25.636;2022-09-28T16:33:07;98057.44;;;22.90;nan
7478;BME280;3780;42.424;25.636;2022-09-28T16:35:50;97963.09;;;22.21;nan
7478;BME280;3780;42.424;25.636;2022-09-28T16:38:17;97434.19;;;22.64;nan
7478;BME280;3780;42.424;25.636;2022-09-28T16:40:47;98055.47;;;22.48;nan
7478;BME280;3780;42.424;25.636;2022-09-28T16:43:23;98024.63;;;22.16;nan
7478;BME280;3780;42.424;25.636;2022-09-28T16:45:54;98038.72;;;22.15;nan
7478;BME280;3780;42.424;25.636;2022-09-28T16:48:26;98049.00;;;22.02;nan
7478;BME280;3780;42.424;25.636;2022-09-28T16:50:53;98052.47;;;21.99;nan
7478;BME280;3780;42.424;25.636;2022-09-28T16:53:18;98045.97;;;21.88;nan
7478;BME280;3780;42.424;25.636;2022-09-28T16:56:03;98066.03;;;21.92;nan
7478;BME280;3780;42.424;25.636;2022-09-28T16:58:29;98034.16;;;21.68;nan
7478;BME280;3780;42.424;25.636;2022-09-28T17:00:56;97939.50;;;21.07;nan
7478;BME280;3780;42.424;25.636;2022-09-28T17:03:22;98007.66;;;21.40;nan
7478;BME280;3780;42.424;25.636;2022-09-28T17:05:49;98053.06;;;21.73;nan
7478;BME280;3780;42.424;25.636;2022-09-28T17:08:17;98037.66;;;21.49;nan
7478;BME280;3780;42.424;25.636;2022-09-28T17:13:17;98061.25;;;21.53;nan
7478;BME280;3780;42.424;25.636;2022-09-28T17:15:45;98055.63;;;21.46;nan
7478;BME280;3780;42.424;25.636;2022-09-28T17:18:16;98061.91;;;21.47;nan
7478;BME280;3780;42.424;25.636;2022-09-28T17:20:44;98068.75;;;21.37;nan